createdAt,value
2023-02-19T00:01:25.689Z,98977.99
2023-02-19T00:03:53.375Z,98978.14
2023-02-19T00:06:19.788Z,98976.04
2023-02-19T00:08:45.777Z,98977.42
2023-02-19T00:11:13.358Z,98978.68
2023-02-19T00:13:44.073Z,98978.19
2023-02-19T00:16:18.771Z,98975.61
2023-02-19T00:18:44.852Z,98970.27
2023-02-19T00:21:11.567Z,98968.34
2023-02-19T00:23:37.704Z,98973.05
2023-02-19T00:26:17.684Z,98976.04
2023-02-19T00:28:45.608Z,98973.20
2023-02-19T00:31:14.466Z,98979.75
2023-02-19T00:33:40.870Z,98980.10
2023-02-19T00:36:07.210Z,98987.56
2023-02-19T00:38:36.110Z,98982.16
2023-02-19T00:41:18.239Z,98985.64
2023-02-19T00:43:54.959Z,98987.59
2023-02-19T00:46:28.416Z,98983.37
2023-02-19T00:48:54.696Z,98983.75
2023-02-19T00:51:24.165Z,98985.44
2023-02-19T00:53:50.415Z,98985.30
2023-02-19T00:56:16.758Z,98978.43
2023-02-19T00:58:42.683Z,98970.47
2023-02-19T01:01:09.471Z,98965.86
2023-02-19T01:03:36.044Z,98960.90
2023-02-19T01:06:02.296Z,98956.33
2023-02-19T01:08:30.357Z,98953.48
2023-02-19T01:10:59.019Z,98955.17
2023-02-19T01:13:25.160Z,98958.70
2023-02-19T01:15:51.167Z,98955.49
2023-02-19T01:18:17.161Z,98958.61
2023-02-19T01:20:43.854Z,98957.09
2023-02-19T01:23:10.390Z,98962.38
2023-02-19T01:25:40.303Z,98965.38
2023-02-19T01:28:06.495Z,98966.20
2023-02-19T01:30:36.561Z,98964.83
2023-02-19T01:33:07.080Z,98961.98
2023-02-19T01:35:33.589Z,98959.19
2023-02-19T01:37:59.517Z,98950.73
2023-02-19T01:40:26.109Z,98953.45
2023-02-19T01:42:52.101Z,98953.32
2023-02-19T01:45:31.266Z,98954.02
2023-02-19T01:48:03.510Z,98952.91
2023-02-19T01:50:32.586Z,98952.92
2023-02-19T01:52:59.008Z,98951.63
2023-02-19T01:55:24.913Z,98949.41
2023-02-19T01:57:52.819Z,98955.55
2023-02-19T02:00:18.783Z,98953.42
2023-02-19T02:02:48.059Z,98950.21
2023-02-19T02:05:24.944Z,98949.02
2023-02-19T02:08:10.017Z,98950.23
2023-02-19T02:10:35.936Z,98953.55
2023-02-19T02:13:01.854Z,98946.59
2023-02-19T02:15:34.190Z,98940.20
2023-02-19T02:18:16.829Z,98937.27
2023-02-19T02:21:03.571Z,98932.80
2023-02-19T02:23:40.142Z,98933.89
2023-02-19T02:26:15.433Z,98934.63
2023-02-19T02:28:47.540Z,98939.16
2023-02-19T02:31:16.058Z,98941.98
2023-02-19T02:34:04.271Z,98946.02
2023-02-19T02:36:35.369Z,98945.27
2023-02-19T02:39:02.838Z,98943.50
2023-02-19T02:41:28.891Z,98932.41
2023-02-19T02:43:54.807Z,98929.98
2023-02-19T02:46:27.880Z,98930.09
2023-02-19T02:48:57.958Z,98925.85
2023-02-19T02:51:29.373Z,98927.72
2023-02-19T02:54:24.549Z,98923.89
2023-02-19T02:56:50.770Z,98922.33
2023-02-19T02:59:21.931Z,98922.45
2023-02-19T03:02:13.386Z,98914.25
2023-02-19T03:05:15.802Z,98915.01
2023-02-19T03:08:05.568Z,98914.02
2023-02-19T03:10:48.226Z,98903.12
2023-02-19T03:13:53.467Z,98899.58
2023-02-19T03:16:42.792Z,98898.23
2023-02-19T03:19:20.067Z,98893.13
2023-02-19T03:21:59.613Z,98892.06
2023-02-19T03:24:48.951Z,98890.09
2023-02-19T03:27:16.591Z,98892.11
2023-02-19T03:29:45.647Z,98888.33
2023-02-19T03:32:21.447Z,98880.50
2023-02-19T03:35:08.792Z,98883.14
2023-02-19T03:37:40.783Z,98882.73
2023-02-19T03:40:07.493Z,98881.09
2023-02-19T03:42:58.590Z,98877.95
2023-02-19T03:45:34.994Z,98877.52
2023-02-19T03:48:15.836Z,98872.95
2023-02-19T03:50:51.544Z,98871.92
2023-02-19T03:53:29.157Z,98875.20
2023-02-19T03:56:08.405Z,98873.27
2023-02-19T03:58:41.106Z,98872.29
2023-02-19T04:01:14.350Z,98878.70
2023-02-19T04:03:46.249Z,98884.65
2023-02-19T04:06:14.022Z,98881.30
2023-02-19T04:08:42.273Z,98878.24
2023-02-19T04:11:08.623Z,98879.67
2023-02-19T04:13:37.955Z,98885.51
2023-02-19T04:16:07.221Z,98879.36
2023-02-19T04:18:35.794Z,98878.30
2023-02-19T04:21:01.751Z,98875.69
2023-02-19T04:23:27.933Z,98872.48
2023-02-19T04:25:55.744Z,98869.94
2023-02-19T04:28:21.704Z,98872.02
2023-02-19T04:30:47.657Z,98870.92
2023-02-19T04:33:13.618Z,98866.52
2023-02-19T04:35:39.709Z,98869.82
2023-02-19T04:38:05.719Z,98860.15
2023-02-19T04:40:31.687Z,98856.08
2023-02-19T04:42:57.616Z,98855.39
2023-02-19T04:45:23.541Z,98849.59
2023-02-19T04:47:49.607Z,98845.92
2023-02-19T04:50:15.743Z,98844.16
2023-02-19T04:52:41.706Z,98845.91
2023-02-19T04:55:07.747Z,98839.21
2023-02-19T04:57:34.320Z,98836.48
2023-02-19T05:00:00.242Z,98821.77
2023-02-19T05:02:26.209Z,98819.99
2023-02-19T05:04:52.227Z,98816.21
2023-02-19T05:07:18.311Z,98815.77
2023-02-19T05:09:44.259Z,98817.30
2023-02-19T05:12:10.177Z,98817.17
2023-02-19T05:14:36.291Z,98815.45
2023-02-19T05:17:02.256Z,98810.33
2023-02-19T05:19:28.185Z,98813.58
2023-02-19T05:21:54.153Z,98815.92
2023-02-19T05:24:20.085Z,98819.47
2023-02-19T05:26:47.641Z,98826.95
2023-02-19T05:29:13.654Z,98832.36
2023-02-19T05:31:39.758Z,98839.76
2023-02-19T05:34:05.870Z,98840.61
2023-02-19T05:36:32.058Z,98838.45
2023-02-19T05:38:58.187Z,98842.63
2023-02-19T05:41:25.706Z,98854.62
2023-02-19T05:43:51.847Z,98858.77
2023-02-19T05:46:20.974Z,98863.44
2023-02-19T05:48:47.993Z,98863.99
2023-02-19T05:51:15.996Z,98864.23
2023-02-19T05:53:42.187Z,98867.19
2023-02-19T05:56:42.387Z,98872.95
2023-02-19T05:59:16.846Z,98872.86
2023-02-19T06:01:42.861Z,98873.08
2023-02-19T06:04:10.221Z,98872.57
2023-02-19T06:06:36.767Z,98866.38
2023-02-19T06:09:03.973Z,98868.16
2023-02-19T06:11:29.877Z,98858.84
2023-02-19T06:13:55.935Z,98846.23
2023-02-19T06:16:22.222Z,98853.66
2023-02-19T06:18:48.315Z,98849.59
2023-02-19T06:21:14.782Z,98855.46
2023-02-19T06:23:40.886Z,98849.48
2023-02-19T06:26:09.671Z,98853.77
2023-02-19T06:28:36.265Z,98867.41
2023-02-19T06:31:02.766Z,98874.09
2023-02-19T06:33:28.945Z,98871.64
2023-02-19T06:35:57.447Z,98876.04
2023-02-19T06:38:23.416Z,98872.24
2023-02-19T06:40:49.326Z,98871.10
2023-02-19T06:43:15.247Z,98870.34
2023-02-19T06:45:41.329Z,98870.39
2023-02-19T06:48:07.358Z,98867.02
2023-02-19T06:50:33.284Z,98867.13
2023-02-19T06:52:59.163Z,98867.00
2023-02-19T06:55:25.069Z,98868.15
2023-02-19T06:57:50.949Z,98868.00
2023-02-19T07:00:17.347Z,98870.54
2023-02-19T07:02:43.397Z,98874.35
2023-02-19T07:05:09.359Z,98873.45
2023-02-19T07:07:35.357Z,98874.95
2023-02-19T07:10:01.240Z,98875.54
2023-02-19T07:12:27.305Z,98879.22
2023-02-19T07:14:53.304Z,98880.61
2023-02-19T07:17:19.235Z,98882.77
2023-02-19T07:19:45.125Z,98881.77
2023-02-19T07:22:11.023Z,98881.58
2023-02-19T07:24:36.993Z,98880.61
2023-02-19T07:27:03.061Z,98880.88
2023-02-19T07:29:28.967Z,98882.07
2023-02-19T07:31:54.887Z,98883.77
2023-02-19T07:34:20.831Z,98877.83
2023-02-19T07:36:46.721Z,98880.14
2023-02-19T07:39:14.993Z,98882.77
2023-02-19T07:41:40.940Z,98887.11
2023-02-19T07:44:06.835Z,98884.23
2023-02-19T07:46:32.757Z,98886.54
2023-02-19T07:48:59.076Z,98890.16
2023-02-19T07:51:27.527Z,98891.63
2023-02-19T07:53:53.468Z,98888.88
2023-02-19T07:56:20.082Z,98887.87
2023-02-19T07:58:46.003Z,98890.88
2023-02-19T08:01:16.652Z,98898.45
2023-02-19T08:03:42.815Z,98902.88
2023-02-19T08:06:10.655Z,98904.04
2023-02-19T08:08:40.026Z,98903.80
2023-02-19T08:11:24.810Z,98903.02
2023-02-19T08:13:51.388Z,98903.95
2023-02-19T08:16:29.668Z,98898.86
2023-02-19T08:18:59.524Z,98903.44
2023-02-19T08:21:25.518Z,98896.90
2023-02-19T08:23:51.515Z,98902.75
2023-02-19T08:26:17.649Z,98911.54
2023-02-19T08:28:43.597Z,98912.20
2023-02-19T08:31:10.908Z,98912.41
2023-02-19T08:33:37.588Z,98907.92
2023-02-19T08:36:05.000Z,98906.65
2023-02-19T08:38:32.155Z,98909.24
2023-02-19T08:40:58.435Z,98910.39
2023-02-19T08:43:24.401Z,98910.48
2023-02-19T08:45:52.415Z,98908.76
2023-02-19T08:48:18.303Z,98912.83
2023-02-19T08:50:44.230Z,98905.22
2023-02-19T08:53:10.193Z,98903.66
2023-02-19T08:55:36.798Z,98902.81
2023-02-19T08:58:02.731Z,98900.70
2023-02-19T09:00:28.684Z,98897.11
2023-02-19T09:02:57.037Z,98898.04
2023-02-19T09:05:23.009Z,98891.00
2023-02-19T09:07:49.042Z,98888.69
2023-02-19T09:10:15.020Z,98895.96
2023-02-19T09:12:41.074Z,98896.94
2023-02-19T09:15:07.432Z,98898.73
2023-02-19T09:17:33.378Z,98905.21
2023-02-19T09:19:59.346Z,98908.00
2023-02-19T09:22:25.338Z,98914.05
2023-02-19T09:24:51.231Z,98922.93
2023-02-19T09:27:18.240Z,98931.29
2023-02-19T09:29:44.222Z,98936.05
2023-02-19T09:32:10.602Z,98934.93
2023-02-19T09:34:38.326Z,98938.80
2023-02-19T09:37:05.056Z,98939.91
2023-02-19T09:39:31.321Z,98938.77
2023-02-19T09:42:00.886Z,98940.81
2023-02-19T09:44:34.161Z,98945.95
2023-02-19T09:47:00.759Z,98943.83
2023-02-19T09:49:38.317Z,98946.55
2023-02-19T09:52:12.049Z,98949.03
2023-02-19T09:54:38.693Z,98948.69
2023-02-19T09:57:04.812Z,98947.14
2023-02-19T10:02:40.288Z,98950.98
2023-02-19T10:05:13.078Z,98955.80
2023-02-19T10:07:47.065Z,98960.41
2023-02-19T10:10:12.947Z,98962.80
2023-02-19T10:12:50.656Z,98966.52
2023-02-19T10:15:30.418Z,98964.11
2023-02-19T10:17:56.384Z,98969.73
2023-02-19T10:20:24.185Z,98966.38
2023-02-19T10:22:58.606Z,98969.86
2023-02-19T10:25:24.522Z,98965.81
2023-02-19T10:27:50.554Z,98966.41
2023-02-19T10:30:22.330Z,98968.83
2023-02-19T10:33:00.616Z,98967.64
2023-02-19T10:35:26.648Z,98976.77
2023-02-19T10:37:52.555Z,98981.69
2023-02-19T10:40:23.530Z,98991.42
2023-02-19T10:42:58.385Z,98993.81
2023-02-19T10:45:34.609Z,98995.77
2023-02-19T10:48:00.724Z,99002.13
2023-02-19T10:50:30.741Z,99005.52
2023-02-19T10:52:57.919Z,99003.06
2023-02-19T10:55:31.341Z,99004.38
2023-02-19T10:57:57.427Z,99009.77
2023-02-19T11:00:29.624Z,99005.64
2023-02-19T11:03:28.162Z,99005.50
2023-02-19T11:06:00.681Z,99010.52
2023-02-19T11:08:26.613Z,99012.10
2023-02-19T11:10:52.699Z,99018.27
2023-02-19T11:13:25.491Z,99023.96
2023-02-19T11:15:52.903Z,99020.05
2023-02-19T11:18:30.683Z,99019.70
2023-02-19T11:20:57.834Z,99024.82
2023-02-19T11:23:30.938Z,99022.63
2023-02-19T11:26:02.732Z,99025.57
2023-02-19T11:28:36.189Z,99028.21
2023-02-19T11:31:15.802Z,99032.58
2023-02-19T11:34:29.227Z,99033.16
2023-02-19T11:37:15.108Z,99035.71
2023-02-19T11:39:45.024Z,99034.31
2023-02-19T11:42:32.325Z,99036.02
2023-02-19T11:45:21.003Z,99037.35
2023-02-19T11:47:54.893Z,99039.33
2023-02-19T11:50:49.327Z,99036.43
2023-02-19T11:53:25.894Z,99031.02
2023-02-19T11:56:13.960Z,99035.16
2023-02-19T11:58:59.516Z,99038.67
2023-02-19T12:01:26.463Z,99043.00
2023-02-19T12:03:52.459Z,99045.30
2023-02-19T12:06:40.088Z,99053.25
2023-02-19T12:09:23.410Z,99059.45
2023-02-19T12:12:14.427Z,99058.45
2023-02-19T12:14:52.058Z,99057.71
2023-02-19T12:17:33.269Z,99060.95
2023-02-19T12:20:18.171Z,99064.11
2023-02-19T12:23:35.726Z,99066.24
2023-02-19T12:26:06.836Z,99078.10
2023-02-19T12:28:44.760Z,99079.89
2023-02-19T12:31:58.575Z,99079.31
2023-02-19T12:34:50.319Z,99086.63
2023-02-19T12:37:44.634Z,99091.43
2023-02-19T12:40:32.747Z,99087.95
2023-02-19T12:43:20.696Z,99089.55
2023-02-19T12:46:05.395Z,99090.95
2023-02-19T12:48:52.995Z,99096.96
2023-02-19T12:51:37.485Z,99093.44
2023-02-19T12:54:06.665Z,99095.55
2023-02-19T12:56:44.151Z,99098.67
2023-02-19T12:59:35.824Z,99101.39
2023-02-19T13:02:33.012Z,99111.30
2023-02-19T13:05:03.550Z,99105.30
2023-02-19T13:07:37.557Z,99115.17
2023-02-19T13:10:33.522Z,99116.52
2023-02-19T13:13:03.204Z,99123.65
2023-02-19T13:15:43.568Z,99118.11
2023-02-19T13:18:15.921Z,99119.55
2023-02-19T13:20:42.660Z,99119.06
2023-02-19T13:23:50.064Z,99120.60
2023-02-19T13:26:25.505Z,99129.36
2023-02-19T13:29:06.456Z,99127.81
2023-02-19T13:31:52.453Z,99129.54
2023-02-19T13:34:27.721Z,99130.27
2023-02-19T13:36:54.047Z,99141.84
2023-02-19T13:39:20.678Z,99153.16
2023-02-19T13:41:51.135Z,99154.88
2023-02-19T13:44:24.811Z,99153.09
2023-02-19T13:46:51.037Z,99160.58
2023-02-19T13:49:49.594Z,99156.83
2023-02-19T13:52:18.451Z,99157.88
2023-02-19T13:54:44.432Z,99164.74
2023-02-19T13:57:22.804Z,99163.66
2023-02-19T13:59:53.421Z,99167.45
2023-02-19T14:02:22.623Z,99171.44
2023-02-19T14:04:51.213Z,99171.06
2023-02-19T14:07:17.125Z,99175.71
2023-02-19T14:09:44.474Z,99173.59
2023-02-19T14:12:15.694Z,99179.14
2023-02-19T14:14:51.842Z,99182.56
2023-02-19T14:17:26.685Z,99176.85
2023-02-19T14:20:00.554Z,99185.93
2023-02-19T14:22:57.157Z,99188.16
2023-02-19T14:25:39.340Z,99193.91
2023-02-19T14:28:32.801Z,99195.42
2023-02-19T14:31:09.416Z,99203.35
2023-02-19T14:33:39.587Z,99207.11
2023-02-19T14:36:15.560Z,99210.23
2023-02-19T14:38:59.453Z,99205.08
2023-02-19T14:41:26.244Z,99207.71
2023-02-19T14:43:53.373Z,99209.48
2023-02-19T14:46:32.359Z,99210.61
2023-02-19T14:49:00.685Z,99208.71
2023-02-19T14:51:34.526Z,99212.59
2023-02-19T14:54:02.339Z,99216.04
2023-02-19T14:56:31.658Z,99222.62
2023-02-19T14:59:08.916Z,99215.88
2023-02-19T15:01:35.296Z,99215.42
2023-02-19T15:04:01.824Z,99219.06
2023-02-19T15:06:27.723Z,99216.90
2023-02-19T15:08:57.853Z,99215.73
2023-02-19T15:11:24.910Z,99219.23
2023-02-19T15:13:52.844Z,99222.85
2023-02-19T15:16:19.404Z,99227.70
2023-02-19T15:18:45.858Z,99230.77
2023-02-19T15:21:20.770Z,99236.37
2023-02-19T15:23:46.678Z,99237.79
2023-02-19T15:26:20.847Z,99242.63
2023-02-19T15:28:46.729Z,99250.83
2023-02-19T15:31:14.673Z,99256.27
2023-02-19T15:33:48.730Z,99259.39
2023-02-19T15:36:14.642Z,99263.05
2023-02-19T15:38:40.657Z,99268.56
2023-02-19T15:41:07.001Z,99274.61
2023-02-19T15:43:44.799Z,99276.32
2023-02-19T15:46:12.462Z,99280.66
2023-02-19T15:48:44.182Z,99287.90
2023-02-19T15:51:14.269Z,99284.70
2023-02-19T15:53:43.962Z,99282.72
2023-02-19T15:56:17.950Z,99289.54
2023-02-19T15:58:51.990Z,99294.51
2023-02-19T16:01:24.666Z,99298.34
2023-02-19T16:03:53.365Z,99306.98
2023-02-19T16:06:19.659Z,99309.05
2023-02-19T16:08:51.776Z,99302.76
2023-02-19T16:11:24.136Z,99318.70
2023-02-19T16:13:50.719Z,99320.80
2023-02-19T16:16:24.144Z,99325.37
2023-02-19T16:18:50.467Z,99332.23
2023-02-19T16:21:17.534Z,99335.42
2023-02-19T16:23:43.922Z,99345.39
2023-02-19T16:26:09.950Z,99348.22
2023-02-19T16:28:37.210Z,99358.92
2023-02-19T16:31:10.837Z,99361.28
2023-02-19T16:33:44.188Z,99360.17
2023-02-19T16:36:32.260Z,99357.13
2023-02-19T16:39:00.116Z,99367.19
2023-02-19T16:41:26.151Z,99368.30
2023-02-19T16:43:52.076Z,99362.23
2023-02-19T16:46:18.096Z,99367.10
2023-02-19T16:48:44.121Z,99370.97
2023-02-19T16:51:13.934Z,99374.14
2023-02-19T16:53:39.876Z,99377.04
2023-02-19T16:56:09.874Z,99384.14
2023-02-19T16:58:37.143Z,99386.05
2023-02-19T17:01:04.632Z,99390.52
2023-02-19T17:03:30.581Z,99392.36
2023-02-19T17:05:56.468Z,99400.11
2023-02-19T17:08:30.846Z,99402.38
2023-02-19T17:10:58.528Z,99405.16
2023-02-19T17:13:24.437Z,99415.17
2023-02-19T17:15:50.453Z,99419.76
2023-02-19T17:18:16.542Z,99428.48
2023-02-19T17:20:42.605Z,99430.05
2023-02-19T17:23:08.862Z,99429.84
2023-02-19T17:25:34.783Z,99434.34
2023-02-19T17:28:00.777Z,99432.39
2023-02-19T17:30:28.660Z,99435.72
2023-02-19T17:32:54.674Z,99434.92
2023-02-19T17:35:20.637Z,99439.18
2023-02-19T17:37:46.645Z,99445.14
2023-02-19T17:40:31.883Z,99451.70
2023-02-19T17:42:59.048Z,99456.93
2023-02-19T17:45:25.166Z,99467.46
2023-02-19T17:47:51.197Z,99473.73
2023-02-19T17:50:19.359Z,99480.11
2023-02-19T17:52:45.297Z,99490.15
2023-02-19T17:55:11.834Z,99498.30
2023-02-19T17:57:37.725Z,99502.73
2023-02-19T18:00:05.216Z,99510.60
2023-02-19T18:02:38.698Z,99509.42
2023-02-19T18:05:05.258Z,99506.77
2023-02-19T18:07:31.190Z,99511.86
2023-02-19T18:09:57.101Z,99507.21
2023-02-19T18:12:25.252Z,99499.70
2023-02-19T18:14:53.914Z,99504.63
2023-02-19T18:17:20.061Z,99506.88
2023-02-19T18:19:46.156Z,99508.15
2023-02-19T18:22:12.098Z,99507.84
2023-02-19T18:24:38.002Z,99510.21
2023-02-19T18:27:03.970Z,99502.91
2023-02-19T18:29:30.408Z,99512.45
2023-02-19T18:31:56.500Z,99511.82
2023-02-19T18:34:22.646Z,99520.73
2023-02-19T18:36:48.730Z,99517.10
2023-02-19T18:39:15.021Z,99521.36
2023-02-19T18:41:40.999Z,99530.63
2023-02-19T18:44:07.020Z,99535.05
2023-02-19T18:46:33.182Z,99547.35
2023-02-19T18:48:59.082Z,99551.24
2023-02-19T18:51:25.014Z,99553.70
2023-02-19T18:53:51.039Z,99550.76
2023-02-19T18:56:17.170Z,99556.48
2023-02-19T18:58:43.131Z,99562.27
2023-02-19T19:01:09.213Z,99569.95
2023-02-19T19:03:35.426Z,99569.84
2023-02-19T19:06:01.471Z,99567.80
2023-02-19T19:08:29.168Z,99568.86
2023-02-19T19:10:56.516Z,99576.44
2023-02-19T19:13:22.918Z,99576.52
2023-02-19T19:15:50.102Z,99581.25
2023-02-19T19:18:16.093Z,99583.29
2023-02-19T19:20:42.007Z,99591.98
2023-02-19T19:23:07.962Z,99595.00
2023-02-19T19:25:33.975Z,99595.68
2023-02-19T19:28:00.080Z,99594.65
2023-02-19T19:30:26.079Z,99603.42
2023-02-19T19:32:52.455Z,99610.74
2023-02-19T19:35:18.886Z,99607.98
2023-02-19T19:37:44.903Z,99605.62
2023-02-19T19:40:11.576Z,99604.27
2023-02-19T19:42:37.474Z,99602.09
2023-02-19T19:45:04.777Z,99607.85
2023-02-19T19:47:30.781Z,99606.89
2023-02-19T19:49:56.665Z,99604.19
2023-02-19T19:52:22.581Z,99608.77
2023-02-19T19:54:53.239Z,99613.15
2023-02-19T19:57:19.470Z,99612.18
2023-02-19T19:59:50.423Z,99608.24
2023-02-19T20:02:16.700Z,99614.13
2023-02-19T20:04:42.737Z,99625.33
2023-02-19T20:07:08.962Z,99625.53
2023-02-19T20:09:34.885Z,99629.08
2023-02-19T20:12:01.444Z,99624.49
2023-02-19T20:14:27.427Z,99626.23
2023-02-19T20:16:54.183Z,99630.61
2023-02-19T20:19:20.221Z,99630.56
2023-02-19T20:21:47.176Z,99630.98
2023-02-19T20:24:15.191Z,99633.96
2023-02-19T20:26:41.388Z,99635.81
2023-02-19T20:29:09.729Z,99635.36
2023-02-19T20:31:36.865Z,99638.38
2023-02-19T20:34:03.029Z,99643.14
2023-02-19T20:36:29.456Z,99652.63
2023-02-19T20:38:55.565Z,99651.27
2023-02-19T20:41:21.472Z,99647.49
2023-02-19T20:43:47.450Z,99655.48
2023-02-19T20:46:13.680Z,99654.26
2023-02-19T20:48:39.897Z,99651.11
2023-02-19T20:51:05.882Z,99652.45
2023-02-19T20:53:31.832Z,99661.36
2023-02-19T20:55:58.147Z,99661.23
2023-02-19T20:58:24.194Z,99667.58
2023-02-19T21:00:52.882Z,99671.66
2023-02-19T21:03:19.082Z,99674.17
2023-02-19T21:05:45.068Z,99673.88
2023-02-19T21:08:11.259Z,99681.77
2023-02-19T21:10:37.664Z,99686.30
2023-02-19T21:13:03.571Z,99688.23
2023-02-19T21:15:29.571Z,99681.90
2023-02-19T21:17:55.479Z,99680.64
2023-02-19T21:20:21.414Z,99681.22
2023-02-19T21:22:47.376Z,99688.58
2023-02-19T21:25:13.389Z,99698.35
2023-02-19T21:27:39.294Z,99699.02
2023-02-19T21:30:06.443Z,99700.91
2023-02-19T21:32:32.600Z,99704.73
2023-02-19T21:34:59.028Z,99703.00
2023-02-19T21:37:24.963Z,99700.27
2023-02-19T21:39:51.369Z,99697.34
2023-02-19T21:42:17.271Z,99703.48
2023-02-19T21:44:43.294Z,99700.60
2023-02-19T21:47:10.934Z,99709.27
2023-02-19T21:49:37.016Z,99713.29
2023-02-19T21:52:03.008Z,99715.33
2023-02-19T21:54:29.066Z,99717.14
2023-02-19T21:56:55.302Z,99716.59
2023-02-19T21:59:21.628Z,99720.83
2023-02-19T22:01:47.549Z,99729.05
2023-02-19T22:04:15.625Z,99727.54
2023-02-19T22:06:41.842Z,99733.70
2023-02-19T22:09:08.077Z,99728.77
2023-02-19T22:11:34.216Z,99727.04
2023-02-19T22:14:00.534Z,99727.67
2023-02-19T22:16:27.521Z,99724.58
2023-02-19T22:18:55.699Z,99717.98
2023-02-19T22:21:22.571Z,99708.53
2023-02-19T22:23:49.520Z,99703.64
2023-02-19T22:26:22.946Z,99705.27
2023-02-19T22:28:48.912Z,99709.13
2023-02-19T22:31:19.384Z,99718.84
2023-02-19T22:33:45.339Z,99731.71
2023-02-19T22:36:25.054Z,99731.66
2023-02-19T22:38:51.180Z,99737.77
2023-02-19T22:41:17.413Z,99736.02
2023-02-19T22:43:43.350Z,99735.05
2023-02-19T22:46:10.954Z,99738.52
2023-02-19T22:48:37.226Z,99743.06
2023-02-19T22:51:03.218Z,99745.58
2023-02-19T22:53:29.168Z,99748.77
2023-02-19T22:55:55.058Z,99744.61
2023-02-19T22:58:20.989Z,99751.58
2023-02-19T23:00:47.024Z,99751.95
2023-02-19T23:03:13.107Z,99748.67
2023-02-19T23:05:39.058Z,99747.64
2023-02-19T23:08:05.005Z,99752.77
2023-02-19T23:10:31.133Z,99756.39
2023-02-19T23:12:57.071Z,99751.58
2023-02-19T23:15:23.182Z,99751.48
2023-02-19T23:17:49.209Z,99754.53
2023-02-19T23:20:15.130Z,99758.63
2023-02-19T23:22:41.050Z,99756.65
2023-02-19T23:25:07.315Z,99752.70
2023-02-19T23:27:33.236Z,99747.42
2023-02-19T23:29:59.226Z,99742.50
2023-02-19T23:32:25.125Z,99739.15
2023-02-19T23:34:51.092Z,99733.36
2023-02-19T23:37:17.056Z,99735.80
2023-02-19T23:39:43.004Z,99728.45
2023-02-19T23:42:13.354Z,99727.40
2023-02-19T23:44:39.285Z,99727.95
2023-02-19T23:47:05.203Z,99734.17
2023-02-19T23:49:31.094Z,99734.02
2023-02-19T23:51:56.998Z,99733.63
2023-02-19T23:54:22.957Z,99727.77
2023-02-19T23:56:48.906Z,99725.98
2023-02-19T23:59:15.090Z,99725.70
